Details From EPWA - Warsaw Okecie - Frederic Chopin
To GCGM - La Gomera
Flight Number -
Tags Generated
Created
Modified
Stats Distance 2,233 nm / 4,135 km
Max Altitude 0 ft / 0 m
Waypoints 8
Social Downloads 0
Likes 0
Share VATSIM

Download

Looking for another format? Having issues loading an existing format? Contact us
Advertisement - Login to hide

Notes

Generated

Route

EPWA KOPIT WLD GVA02 MEDAP SOLAX LGM GCGM

ID Type Via Altitude Latitude Longitude Leg Dist Tot Dist Heading (true) Name
O EPWA APT - 0 ft / 0 m 52.17148˚ 20.94671˚ - 0 nm - -
KOPIT FIX - 0 ft / 0 m 50.18821˚ 15.15795˚ 248 nm 248 nm 244° / 239° -
WLD VOR - 0 ft / 0 m 48.57942˚ 11.12939˚ 184 nm 432 nm 240° / 237° WALDA VOR-DME
GVA02 FIX - 0 ft / 0 m 46.22955˚ 6.16502˚ 246 nm 679 nm 237° / 233° -
MEDAP FIX - 0 ft / 0 m 43.92167˚ 2.02167˚ 223 nm 902 nm 233° / 230° -
SOLAX FIX - 0 ft / 0 m 39.24255˚ -4.94918˚ 420 nm 1323 nm 230° / 226° -
LGM VOR - 0 ft / 0 m 28.02874˚ -17.21487˚ 909 nm 2232 nm 226° / 219° LA GOMERA VOR-DME
O GCGM APT - 0 ft / 0 m 28.02859˚ -17.22214˚ 0 nm 2232 nm 269° / 269° -

Altitude Profile

Advertisement - Login to hide

Weather


0- 5 10 15 20 25 30 35+ Temperature / ° C

Clouds and Precipitation
Forecast for 2017-12-17 12:00 UTC. Updated 36 minutes ago

Ground ~20,000 ft ~40,000 ft Winds

EPWA

Details ICAO EPWA (WAW)
Name WARSZAWA Okecie
Region Poland
Timezone Europe/Warsaw (UTC+1.0)
Stats Elevation 328 ft / 100 m (AMSL)
Location 52.165091° 20.966923°
Runways 2
Magnetic Variation 5.802° E

METAR

EPWA 171130Z VRB02KT 9999 SCT014 03/M01 Q1016 NOSIG

Decode

TAF

TAF EPWA 171130Z 1712/1812 24005KT 8000 BKN020 PROB40 TEMPO 1712/1718 BKN009 BECMG 1716/1718 3000 BR PROB40 1720/1808 0300 FZFG BKN001

Decode

Departure Runways

ID Width Length Bearing (true) Bearing (mag) Surface Threshold Offset Overrun Length
11 164 ft / 50 m 9,163 ft / 2,793 m 114.64° 108.84° Asphalt 0 ft / 0 m 476 ft / 145 m
15 197 ft / 60 m 12,112 ft / 3,692 m 151.85° 146.05° Asphalt 0 ft / 0 m 0 ft / 0 m
29 164 ft / 50 m 9,163 ft / 2,793 m 294.67° 288.87° Asphalt 1,608 ft / 490 m 0 ft / 0 m
33 197 ft / 60 m 12,112 ft / 3,692 m 331.87° 326.07° Asphalt 0 ft / 0 m 0 ft / 0 m

GCGM

Details ICAO GCGM (GMZ)
Name La Gomera
Region Canary Islands
Timezone Atlantic/Canary (UTC+0.0)
Stats Elevation 715 ft / 218 m (AMSL)
Location 28.029627° -17.214603°
Runways 1
Magnetic Variation 5.358° W

METAR

GCGM 171130Z VRB09G19KT 9999 FEW032 20/10 Q1024 RMK R09/34012G24KT 280V060 ARP/01011G21KT 300V070

Decode

TAF

TAF GCGM 170800Z 1709/1809 35004KT 9999 FEW030 TX21/1714Z TN18/1806Z BECMG 1709/1710 01014KT

Decode

Destination Runways

ID Width Length Bearing (true) Bearing (mag) Surface Threshold Offset Overrun Length
09 98 ft / 30 m 4,914 ft / 1,498 m 81.17° 86.53° Asphalt 0 ft / 0 m 0 ft / 0 m
27 98 ft / 30 m 4,914 ft / 1,498 m 261.18° 266.54° Asphalt 0 ft / 0 m 0 ft / 0 m